Accueil
METAR-TAF:

METAR-TAF

Aéroports :

Nice, France

Aéroport de Nice-Côte d'Azur

latitude: 43-39N, longitude: 007-12E, altitude: 4 m

Observation

Le bulletin a été fait il y a 19 minutes, à 08:30 UTC
Vent 6 kt de est
Température 20°C
Humidité 73%
Pression 1018 hPa
Visibilité 10 km ou plus
Quelques nuages à une hauteur de 1300 ft
Nuages épars à une hauteur de 26000 ft

METAR: LFMN 230830Z 10006KT 9999 FEW013 SCT260 20/15 Q1018 NOSIG

Heure: 10:49 (08:49 UTC)

Prévision

Le bulletin a été fait il y a 49 minutes, à 08:00 UTC
Prévision valable du 23 à 09 UTC au 24 à 15 UTC
Vent 8 kt de est
Visibilité 10 km ou plus
Quelques nuages à une hauteur de 1300 ft
Probabilité 40% :
Temporairement
du 23 à 20 UTC au 24 à 15 UTC
Visibilité: 3000 m
Nuages fragmentés à une hauteur de 500 ft
brume

TAF: LFMN 230800Z 2309/2415 10008KT 9999 FEW013 PROB40 TEMPO 2320/2415 3000 BR BKN005

Observations et prévisions météorologiques de plus de 4000 aéroports (messages METAR et TAF).

Les stations disponibles sont représentées par des disques jaunes et rouges sur la carte.

Passer la souris dessus pour voir le nom de la station.

Cliquer dessus pour voir les observations et prévisions météorologiques.

Pour changer de carte: cliquez sur les boutons verts avec une croix noire pour zoomer, sur le bouton vert avec un tiret pour effectuer un zoom arrière, ou sur les flèches vertes pour les cartes adjacentes.


METAR-TAF: